Palau, Palau
Current Conditions -  °F | °C
As of 9:52 PM on Monday 20 Oct 2014 (Local Time) from PTKR Reporting Station
Broken Clouds Broken Clouds  
Wind Chill: 28°   Ceiling: 32000
Heat Index: 32°   Visibility: 15mi
Dew Point: 25°   Wind: 0mph
Humidity: 84%   Direction: NA
Pressure: 29.89"   Gusts: NA
Location:  7.33°N, 134.48°E
Report Text: PTKR 201252Z 00000KT 15SM FEW017 BKN320 28/25 A2989 RMK SLP123T02770248
Loading
Personal Weather Stations






























Interactive Weather Map
Tropical Storm Tracking
New forecast layout! Learn more

10-Day Weather Forecast

Advertisements
Track Severe Weather on mobile